VOZ962 YBBN-YSSY
Flight info
| Callsign | VOZ962 |
|---|---|
| Flight time | 1h 9m |
| Altitude | 32000 |
| Route | SANEG H91 IGDAM H652 BOREE |
| Aircraft | B738/M-SDE2E3FGHIRWXY/LB1 |
Departure
| Time | 2026-04-24 06:01 |
|---|---|
| Airport | Brisbane International Airport (YBBN) |
Arrival
| Time | 2026-04-24 07:10 |
|---|---|
| Airport | Sydney Kingsford Smith International Airport (YSSY) |
| Time | Latitude | Longitude | Altitude | Speed | Heading |
|---|---|---|---|---|---|
| 2026-04-24 05:47 | -27.38479 | 153.12147 | 17 ft | 0 kts | 300° |
| 2026-04-24 05:53 | -27.38481 | 153.12151 | 18 ft | 2 kts | 300° |
| 2026-04-24 05:53 | -27.38489 | 153.12166 | 19 ft | 2 kts | 299° |
| 2026-04-24 05:53 | -27.38496 | 153.12183 | 20 ft | 2 kts | 286° |
| 2026-04-24 05:53 | -27.38498 | 153.12196 | 20 ft | 2 kts | 256° |
| 2026-04-24 05:54 | -27.38490 | 153.12220 | 19 ft | 4 kts | 249° |
| 2026-04-24 05:54 | -27.38484 | 153.12242 | 18 ft | 2 kts | 267° |
| 2026-04-24 05:54 | -27.38486 | 153.12262 | 17 ft | 3 kts | 287° |
| 2026-04-24 05:54 | -27.38495 | 153.12284 | 21 ft | 3 kts | 300° |
| 2026-04-24 05:55 | -27.38507 | 153.12310 | 18 ft | 4 kts | 296° |
| 2026-04-24 05:55 | -27.38519 | 153.12337 | 18 ft | 4 kts | 298° |
| 2026-04-24 05:55 | -27.38528 | 153.12353 | 18 ft | 2 kts | 317° |
| 2026-04-24 05:55 | -27.38537 | 153.12360 | 17 ft | 2 kts | 353° |
| 2026-04-24 05:56 | -27.38550 | 153.12359 | 19 ft | 2 kts | 18° |
| 2026-04-24 05:56 | -27.38568 | 153.12350 | 17 ft | 3 kts | 22° |
| 2026-04-24 05:56 | -27.38581 | 153.12343 | 17 ft | 2 kts | 27° |
| 2026-04-24 05:56 | -27.38582 | 153.12343 | 18 ft | 0 kts | 27° |
| 2026-04-24 05:57 | -27.38579 | 153.12344 | 21 ft | 2 kts | 27° |
| 2026-04-24 05:57 | -27.38557 | 153.12372 | 17 ft | 8 kts | 73° |
| 2026-04-24 05:57 | -27.38537 | 153.12446 | 19 ft | 12 kts | 49° |
| 2026-04-24 05:58 | -27.38450 | 153.12502 | 17 ft | 15 kts | 28° |
| 2026-04-24 05:58 | -27.38359 | 153.12555 | 17 ft | 15 kts | 27° |
| 2026-04-24 05:58 | -27.38271 | 153.12605 | 18 ft | 14 kts | 26° |
| 2026-04-24 05:58 | -27.38187 | 153.12653 | 17 ft | 13 kts | 27° |
| 2026-04-24 05:59 | -27.38106 | 153.12700 | 17 ft | 13 kts | 27° |
| 2026-04-24 05:59 | -27.38027 | 153.12745 | 19 ft | 13 kts | 27° |
| 2026-04-24 05:59 | -27.37998 | 153.12826 | 17 ft | 12 kts | 109° |
| 2026-04-24 05:59 | -27.38035 | 153.12909 | 19 ft | 12 kts | 117° |
| 2026-04-24 06:00 | -27.38072 | 153.12991 | 18 ft | 12 kts | 117° |
| 2026-04-24 06:00 | -27.38127 | 153.13045 | 19 ft | 11 kts | 185° |
| 2026-04-24 06:00 | -27.38218 | 153.12999 | 20 ft | 20 kts | 207° |
| 2026-04-24 06:00 | -27.38555 | 153.12807 | 20 ft | 96 kts | 207° |
| 2026-04-24 06:01 | -27.39385 | 153.12336 | 26 ft | 168 kts | 205° |
| 2026-04-24 06:01 | -27.40539 | 153.11680 | 470 ft | 203 kts | 206° |
| 2026-04-24 06:01 | -27.41846 | 153.10874 | 1154 ft | 222 kts | 203° |
| 2026-04-24 06:01 | -27.43280 | 153.10649 | 2344 ft | 206 kts | 165° |
| 2026-04-24 06:02 | -27.44505 | 153.11445 | 3259 ft | 207 kts | 146° |
| 2026-04-24 06:02 | -27.45696 | 153.12349 | 4194 ft | 207 kts | 148° |
| 2026-04-24 06:02 | -27.46941 | 153.13189 | 5125 ft | 209 kts | 150° |
| 2026-04-24 06:02 | -27.48217 | 153.13990 | 5945 ft | 214 kts | 150° |
| 2026-04-24 06:03 | -27.49573 | 153.14710 | 6758 ft | 219 kts | 167° |
| 2026-04-24 06:03 | -27.50633 | 153.14742 | 7113 ft | 236 kts | 184° |
| 2026-04-24 06:03 | -27.52322 | 153.14360 | 7496 ft | 259 kts | 189° |
| 2026-04-24 06:03 | -27.54093 | 153.13903 | 8313 ft | 263 kts | 189° |
| 2026-04-24 06:04 | -27.55899 | 153.13420 | 9117 ft | 270 kts | 192° |
| 2026-04-24 06:04 | -27.58274 | 153.12517 | 10332 ft | 276 kts | 196° |
| 2026-04-24 06:04 | -27.59526 | 153.12008 | 10626 ft | 290 kts | 196° |
| 2026-04-24 06:04 | -27.61500 | 153.11213 | 10802 ft | 318 kts | 197° |
| 2026-04-24 06:05 | -27.63677 | 153.10406 | 11168 ft | 336 kts | 194° |
| 2026-04-24 06:05 | -27.65950 | 153.09649 | 11847 ft | 343 kts | 193° |
| 2026-04-24 06:05 | -27.68255 | 153.08899 | 12632 ft | 346 kts | 193° |
| 2026-04-24 06:05 | -27.70585 | 153.08137 | 13362 ft | 350 kts | 193° |
| 2026-04-24 06:06 | -27.72946 | 153.07358 | 14086 ft | 355 kts | 194° |
| 2026-04-24 06:06 | -27.75326 | 153.06566 | 14765 ft | 358 kts | 194° |
| 2026-04-24 06:06 | -27.77731 | 153.05763 | 15445 ft | 361 kts | 194° |
| 2026-04-24 06:06 | -27.80150 | 153.04954 | 16103 ft | 365 kts | 194° |
| 2026-04-24 06:07 | -27.82565 | 153.04122 | 16730 ft | 370 kts | 196° |
| 2026-04-24 06:07 | -27.84999 | 153.03122 | 17364 ft | 375 kts | 198° |
| 2026-04-24 06:07 | -27.87434 | 153.02038 | 18026 ft | 378 kts | 199° |
| 2026-04-24 06:07 | -27.89901 | 153.00923 | 18654 ft | 382 kts | 199° |
| 2026-04-24 06:08 | -27.92383 | 152.99808 | 19210 ft | 385 kts | 199° |
| 2026-04-24 06:08 | -27.94892 | 152.98693 | 19729 ft | 389 kts | 199° |
| 2026-04-24 06:08 | -27.97434 | 152.97573 | 20248 ft | 393 kts | 199° |
| 2026-04-24 06:08 | -27.99992 | 152.96451 | 20790 ft | 396 kts | 199° |
| 2026-04-24 06:09 | -28.02554 | 152.95328 | 21255 ft | 401 kts | 199° |
| 2026-04-24 06:09 | -28.05172 | 152.94181 | 21739 ft | 405 kts | 199° |
| 2026-04-24 06:09 | -28.07818 | 152.93021 | 22260 ft | 408 kts | 199° |
| 2026-04-24 06:09 | -28.10487 | 152.91847 | 22768 ft | 411 kts | 199° |
| 2026-04-24 06:10 | -28.13166 | 152.90660 | 23203 ft | 415 kts | 199° |
| 2026-04-24 06:10 | -28.15831 | 152.89475 | 23560 ft | 419 kts | 199° |
| 2026-04-24 06:10 | -28.18553 | 152.88261 | 23939 ft | 421 kts | 199° |
| 2026-04-24 06:11 | -28.24039 | 152.85813 | 24615 ft | 426 kts | 199° |
| 2026-04-24 06:11 | -28.26804 | 152.84576 | 24941 ft | 428 kts | 199° |
| 2026-04-24 06:11 | -28.29589 | 152.83332 | 25245 ft | 431 kts | 199° |
| 2026-04-24 06:11 | -28.32379 | 152.82086 | 25579 ft | 432 kts | 199° |
| 2026-04-24 06:12 | -28.35190 | 152.80829 | 25894 ft | 434 kts | 199° |
| 2026-04-24 06:12 | -28.38010 | 152.79568 | 26198 ft | 436 kts | 199° |
| 2026-04-24 06:12 | -28.40842 | 152.78303 | 26483 ft | 439 kts | 199° |
| 2026-04-24 06:12 | -28.43700 | 152.77026 | 26755 ft | 442 kts | 199° |
| 2026-04-24 06:13 | -28.46532 | 152.75757 | 27032 ft | 444 kts | 199° |
| 2026-04-24 06:13 | -28.49408 | 152.74468 | 27360 ft | 445 kts | 200° |
| 2026-04-24 06:13 | -28.52294 | 152.73175 | 27636 ft | 447 kts | 199° |
| 2026-04-24 06:13 | -28.55193 | 152.71875 | 27890 ft | 449 kts | 199° |
| 2026-04-24 06:14 | -28.58119 | 152.70561 | 28142 ft | 451 kts | 199° |
| 2026-04-24 06:14 | -28.61052 | 152.69244 | 28410 ft | 453 kts | 199° |
| 2026-04-24 06:14 | -28.63989 | 152.67924 | 28736 ft | 453 kts | 200° |
| 2026-04-24 06:14 | -28.66928 | 152.66602 | 29085 ft | 453 kts | 200° |
| 2026-04-24 06:15 | -28.69821 | 152.65300 | 29449 ft | 452 kts | 200° |
| 2026-04-24 06:15 | -28.72747 | 152.63982 | 29783 ft | 452 kts | 200° |
| 2026-04-24 06:15 | -28.75676 | 152.62662 | 30106 ft | 452 kts | 200° |
| 2026-04-24 06:15 | -28.78605 | 152.61342 | 30424 ft | 453 kts | 200° |
| 2026-04-24 06:16 | -28.81533 | 152.60021 | 30735 ft | 452 kts | 200° |
| 2026-04-24 06:16 | -28.84446 | 152.58704 | 31197 ft | 446 kts | 201° |
| 2026-04-24 06:16 | -28.87261 | 152.57253 | 31688 ft | 442 kts | 205° |
| 2026-04-24 06:16 | -28.89982 | 152.55666 | 32150 ft | 437 kts | 207° |
| 2026-04-24 06:17 | -28.92661 | 152.54039 | 32350 ft | 435 kts | 207° |
| 2026-04-24 06:17 | -28.97987 | 152.50780 | 32367 ft | 442 kts | 207° |
| 2026-04-24 06:18 | -29.03498 | 152.47457 | 32387 ft | 451 kts | 207° |
| 2026-04-24 06:18 | -29.09043 | 152.44146 | 32363 ft | 448 kts | 207° |
| 2026-04-24 06:19 | -29.14597 | 152.40834 | 32371 ft | 450 kts | 207° |
| 2026-04-24 06:19 | -29.20128 | 152.37533 | 32370 ft | 447 kts | 207° |
| 2026-04-24 06:20 | -29.25650 | 152.34233 | 32380 ft | 453 kts | 207° |
| 2026-04-24 06:20 | -29.31257 | 152.30875 | 32390 ft | 458 kts | 207° |
| 2026-04-24 06:21 | -29.36935 | 152.27471 | 32376 ft | 462 kts | 207° |
| 2026-04-24 06:21 | -29.42647 | 152.24042 | 32388 ft | 463 kts | 207° |
| 2026-04-24 06:22 | -29.48368 | 152.20604 | 32397 ft | 464 kts | 207° |
| 2026-04-24 06:22 | -29.54036 | 152.17193 | 32376 ft | 461 kts | 207° |
| 2026-04-24 06:23 | -29.59692 | 152.13785 | 32375 ft | 456 kts | 207° |
| 2026-04-24 06:23 | -29.65301 | 152.10401 | 32390 ft | 453 kts | 207° |
| 2026-04-24 06:24 | -29.70975 | 152.07272 | 32376 ft | 451 kts | 198° |
| 2026-04-24 06:24 | -29.77031 | 152.05575 | 32391 ft | 451 kts | 192° |
| 2026-04-24 06:25 | -29.83176 | 152.04052 | 32392 ft | 450 kts | 192° |
| 2026-04-24 06:25 | -29.89320 | 152.02486 | 32400 ft | 455 kts | 192° |
| 2026-04-24 06:26 | -29.95494 | 152.00877 | 32401 ft | 460 kts | 192° |
| 2026-04-24 06:26 | -30.01760 | 151.99233 | 32406 ft | 462 kts | 192° |
| 2026-04-24 06:27 | -30.08001 | 151.97594 | 32401 ft | 462 kts | 192° |
| 2026-04-24 06:27 | -30.14252 | 151.95952 | 32395 ft | 458 kts | 192° |
| 2026-04-24 06:28 | -30.20410 | 151.94332 | 32398 ft | 450 kts | 192° |
| 2026-04-24 06:28 | -30.26498 | 151.92730 | 32410 ft | 448 kts | 192° |
| 2026-04-24 06:29 | -30.32573 | 151.91075 | 32409 ft | 449 kts | 195° |
| 2026-04-24 06:29 | -30.38419 | 151.88478 | 32411 ft | 451 kts | 201° |
| 2026-04-24 06:30 | -30.44210 | 151.85712 | 32410 ft | 452 kts | 200° |
| 2026-04-24 06:30 | -30.50074 | 151.82935 | 32422 ft | 457 kts | 200° |
| 2026-04-24 06:31 | -30.55999 | 151.80157 | 32418 ft | 459 kts | 200° |
| 2026-04-24 06:31 | -30.61905 | 151.77396 | 32409 ft | 460 kts | 200° |
| 2026-04-24 06:32 | -30.67854 | 151.74611 | 32414 ft | 459 kts | 200° |
| 2026-04-24 06:32 | -30.73737 | 151.71855 | 32411 ft | 458 kts | 200° |
| 2026-04-24 06:33 | -30.79658 | 151.69075 | 32415 ft | 458 kts | 200° |
| 2026-04-24 06:33 | -30.85565 | 151.66299 | 32412 ft | 457 kts | 199° |
| 2026-04-24 06:34 | -30.91462 | 151.63523 | 32414 ft | 456 kts | 199° |
| 2026-04-24 06:34 | -30.97307 | 151.60769 | 32417 ft | 455 kts | 199° |
| 2026-04-24 06:35 | -31.03182 | 151.57996 | 32410 ft | 455 kts | 199° |
| 2026-04-24 06:35 | -31.09048 | 151.55224 | 32417 ft | 454 kts | 199° |
| 2026-04-24 06:36 | -31.14871 | 151.52468 | 32417 ft | 453 kts | 198° |
| 2026-04-24 06:36 | -31.20706 | 151.49703 | 32420 ft | 452 kts | 198° |
| 2026-04-24 06:37 | -31.26536 | 151.46937 | 32410 ft | 451 kts | 198° |
| 2026-04-24 06:37 | -31.32358 | 151.44171 | 32415 ft | 451 kts | 198° |
| 2026-04-24 06:38 | -31.38171 | 151.41406 | 32418 ft | 450 kts | 198° |
| 2026-04-24 06:38 | -31.43967 | 151.38758 | 32416 ft | 449 kts | 197° |
| 2026-04-24 06:39 | -31.49810 | 151.36184 | 32428 ft | 448 kts | 196° |
| 2026-04-24 06:39 | -31.55652 | 151.33596 | 32405 ft | 441 kts | 197° |
| 2026-04-24 06:40 | -31.61250 | 151.31092 | 32410 ft | 428 kts | 196° |
| 2026-04-24 06:40 | -31.66819 | 151.28602 | 32411 ft | 427 kts | 196° |
| 2026-04-24 06:41 | -31.72382 | 151.26111 | 32419 ft | 427 kts | 197° |
| 2026-04-24 06:41 | -31.77942 | 151.23617 | 32416 ft | 428 kts | 197° |
| 2026-04-24 06:42 | -31.83475 | 151.21130 | 32413 ft | 428 kts | 197° |
| 2026-04-24 06:42 | -31.89059 | 151.18617 | 32419 ft | 427 kts | 197° |
| 2026-04-24 06:43 | -31.94608 | 151.16117 | 32310 ft | 427 kts | 197° |
| 2026-04-24 06:43 | -31.97376 | 151.14874 | 31960 ft | 422 kts | 197° |
| 2026-04-24 06:43 | -32.00078 | 151.13662 | 31485 ft | 418 kts | 197° |
| 2026-04-24 06:43 | -32.02782 | 151.12450 | 31056 ft | 414 kts | 196° |
| 2026-04-24 06:44 | -32.05468 | 151.11246 | 30619 ft | 411 kts | 196° |
| 2026-04-24 06:44 | -32.08140 | 151.10047 | 30126 ft | 409 kts | 196° |
| 2026-04-24 06:44 | -32.10791 | 151.08857 | 29612 ft | 406 kts | 196° |
| 2026-04-24 06:44 | -32.13419 | 151.07676 | 29147 ft | 402 kts | 197° |
| 2026-04-24 06:45 | -32.15996 | 151.06517 | 28681 ft | 398 kts | 197° |
| 2026-04-24 06:45 | -32.18577 | 151.05355 | 28243 ft | 394 kts | 197° |
| 2026-04-24 06:45 | -32.21131 | 151.04205 | 27782 ft | 391 kts | 197° |
| 2026-04-24 06:45 | -32.23665 | 151.03063 | 27342 ft | 388 kts | 197° |
| 2026-04-24 06:46 | -32.26190 | 151.01925 | 26901 ft | 386 kts | 197° |
| 2026-04-24 06:46 | -32.28692 | 151.00796 | 26458 ft | 383 kts | 197° |
| 2026-04-24 06:46 | -32.31151 | 150.99686 | 26029 ft | 381 kts | 197° |
| 2026-04-24 06:46 | -32.33630 | 150.98567 | 25599 ft | 379 kts | 197° |
| 2026-04-24 06:47 | -32.36083 | 150.97458 | 25175 ft | 377 kts | 197° |
| 2026-04-24 06:47 | -32.38527 | 150.96353 | 24760 ft | 375 kts | 197° |
| 2026-04-24 06:47 | -32.40929 | 150.95266 | 24309 ft | 374 kts | 197° |
| 2026-04-24 06:47 | -32.43355 | 150.94168 | 23857 ft | 373 kts | 197° |
| 2026-04-24 06:48 | -32.45772 | 150.93073 | 23370 ft | 371 kts | 197° |
| 2026-04-24 06:48 | -32.48200 | 150.92101 | 22908 ft | 365 kts | 189° |
| 2026-04-24 06:48 | -32.50695 | 150.91660 | 22424 ft | 360 kts | 180° |
| 2026-04-24 06:48 | -32.53195 | 150.91723 | 21836 ft | 358 kts | 170° |
| 2026-04-24 06:49 | -32.55663 | 150.92147 | 21385 ft | 356 kts | 168° |
| 2026-04-24 06:49 | -32.58098 | 150.92608 | 20949 ft | 353 kts | 168° |
| 2026-04-24 06:49 | -32.60523 | 150.93070 | 20538 ft | 351 kts | 168° |
| 2026-04-24 06:49 | -32.62932 | 150.93522 | 20126 ft | 350 kts | 168° |
| 2026-04-24 06:50 | -32.65331 | 150.93964 | 19716 ft | 348 kts | 168° |
| 2026-04-24 06:50 | -32.67721 | 150.94399 | 19302 ft | 346 kts | 168° |
| 2026-04-24 06:50 | -32.70095 | 150.94828 | 18915 ft | 345 kts | 168° |
| 2026-04-24 06:50 | -32.72437 | 150.95251 | 18494 ft | 344 kts | 168° |
| 2026-04-24 06:51 | -32.74794 | 150.95676 | 18043 ft | 342 kts | 168° |
| 2026-04-24 06:51 | -32.77139 | 150.96099 | 17623 ft | 340 kts | 168° |
| 2026-04-24 06:51 | -32.79474 | 150.96520 | 17212 ft | 337 kts | 168° |
| 2026-04-24 06:51 | -32.81793 | 150.96932 | 16787 ft | 336 kts | 169° |
| 2026-04-24 06:52 | -32.84100 | 150.97341 | 16369 ft | 334 kts | 169° |
| 2026-04-24 06:52 | -32.85624 | 150.97611 | 16113 ft | 333 kts | 169° |
| 2026-04-24 06:52 | -32.87914 | 150.98016 | 15727 ft | 331 kts | 169° |
| 2026-04-24 06:52 | -32.90186 | 150.98420 | 15340 ft | 329 kts | 169° |
| 2026-04-24 06:53 | -32.93184 | 150.98952 | 14824 ft | 327 kts | 169° |
| 2026-04-24 06:53 | -32.95426 | 150.99351 | 14457 ft | 325 kts | 169° |
| 2026-04-24 06:53 | -32.97659 | 150.99748 | 14051 ft | 324 kts | 169° |
| 2026-04-24 06:53 | -32.99163 | 151.00016 | 13773 ft | 323 kts | 169° |
| 2026-04-24 06:54 | -33.01377 | 151.00410 | 13368 ft | 321 kts | 169° |
| 2026-04-24 06:54 | -33.03558 | 151.00799 | 12983 ft | 319 kts | 169° |
| 2026-04-24 06:54 | -33.05750 | 151.01190 | 12608 ft | 317 kts | 169° |
| 2026-04-24 06:54 | -33.07928 | 151.01578 | 12234 ft | 315 kts | 169° |
| 2026-04-24 06:55 | -33.10092 | 151.01965 | 11867 ft | 313 kts | 169° |
| 2026-04-24 06:55 | -33.12239 | 151.02348 | 11493 ft | 311 kts | 169° |
| 2026-04-24 06:55 | -33.14381 | 151.02731 | 11123 ft | 310 kts | 169° |
| 2026-04-24 06:55 | -33.16464 | 151.03103 | 10925 ft | 302 kts | 169° |
| 2026-04-24 06:56 | -33.18517 | 151.03469 | 10776 ft | 293 kts | 168° |
| 2026-04-24 06:56 | -33.20539 | 151.03832 | 10326 ft | 296 kts | 169° |
| 2026-04-24 06:56 | -33.22569 | 151.04196 | 10086 ft | 291 kts | 168° |
| 2026-04-24 06:56 | -33.24553 | 151.04555 | 9875 ft | 285 kts | 168° |
| 2026-04-24 06:57 | -33.26510 | 151.04928 | 9535 ft | 284 kts | 168° |
| 2026-04-24 06:57 | -33.28431 | 151.05298 | 9235 ft | 282 kts | 168° |
| 2026-04-24 06:57 | -33.30367 | 151.05671 | 8920 ft | 280 kts | 168° |
| 2026-04-24 06:57 | -33.32289 | 151.06040 | 8631 ft | 278 kts | 168° |
| 2026-04-24 06:58 | -33.34197 | 151.06405 | 8337 ft | 277 kts | 168° |
| 2026-04-24 06:58 | -33.36102 | 151.06769 | 8040 ft | 276 kts | 168° |
| 2026-04-24 06:58 | -33.38015 | 151.07008 | 7715 ft | 278 kts | 175° |
| 2026-04-24 06:58 | -33.39928 | 151.07025 | 7396 ft | 278 kts | 178° |
| 2026-04-24 06:59 | -33.41874 | 151.07001 | 7065 ft | 280 kts | 178° |
| 2026-04-24 06:59 | -33.43825 | 151.06982 | 6713 ft | 281 kts | 178° |
| 2026-04-24 06:59 | -33.45787 | 151.06977 | 6346 ft | 281 kts | 178° |
| 2026-04-24 06:59 | -33.47739 | 151.06983 | 6006 ft | 280 kts | 177° |
| 2026-04-24 07:00 | -33.49690 | 151.06996 | 5656 ft | 280 kts | 177° |
| 2026-04-24 07:00 | -33.51622 | 151.07011 | 5320 ft | 280 kts | 177° |
| 2026-04-24 07:00 | -33.53564 | 151.07089 | 4952 ft | 278 kts | 168° |
| 2026-04-24 07:00 | -33.55329 | 151.07946 | 4642 ft | 272 kts | 146° |
| 2026-04-24 07:01 | -33.56874 | 151.09195 | 4319 ft | 263 kts | 143° |
| 2026-04-24 07:01 | -33.58332 | 151.10453 | 4040 ft | 253 kts | 138° |
| 2026-04-24 07:01 | -33.59457 | 151.12004 | 3839 ft | 241 kts | 124° |
| 2026-04-24 07:01 | -33.60376 | 151.13627 | 3711 ft | 227 kts | 123° |
| 2026-04-24 07:02 | -33.61217 | 151.15131 | 3679 ft | 206 kts | 123° |
| 2026-04-24 07:02 | -33.61985 | 151.16504 | 3566 ft | 200 kts | 122° |
| 2026-04-24 07:02 | -33.62765 | 151.17902 | 3323 ft | 201 kts | 123° |
| 2026-04-24 07:02 | -33.63767 | 151.19061 | 3073 ft | 201 kts | 149° |
| 2026-04-24 07:03 | -33.65084 | 151.19463 | 3005 ft | 192 kts | 179° |
| 2026-04-24 07:03 | -33.66385 | 151.19044 | 2995 ft | 197 kts | 201° |
| 2026-04-24 07:03 | -33.67622 | 151.18329 | 2977 ft | 196 kts | 202° |
| 2026-04-24 07:03 | -33.68815 | 151.17625 | 2954 ft | 185 kts | 203° |
| 2026-04-24 07:04 | -33.69917 | 151.16973 | 2957 ft | 175 kts | 202° |
| 2026-04-24 07:04 | -33.70978 | 151.16338 | 2955 ft | 167 kts | 202° |
| 2026-04-24 07:04 | -33.72015 | 151.15717 | 2971 ft | 164 kts | 203° |
| 2026-04-24 07:04 | -33.73034 | 151.15111 | 2979 ft | 163 kts | 203° |
| 2026-04-24 07:05 | -33.74048 | 151.14508 | 3012 ft | 163 kts | 202° |
| 2026-04-24 07:05 | -33.75059 | 151.13900 | 2919 ft | 162 kts | 202° |
| 2026-04-24 07:05 | -33.76078 | 151.13321 | 2753 ft | 160 kts | 191° |
| 2026-04-24 07:05 | -33.77126 | 151.13362 | 2644 ft | 150 kts | 167° |
| 2026-04-24 07:06 | -33.78182 | 151.13499 | 2517 ft | 153 kts | 171° |
| 2026-04-24 07:06 | -33.79238 | 151.13660 | 2372 ft | 152 kts | 166° |
| 2026-04-24 07:06 | -33.80269 | 151.13887 | 2249 ft | 149 kts | 165° |
| 2026-04-24 07:06 | -33.81294 | 151.14141 | 2116 ft | 149 kts | 165° |
| 2026-04-24 07:07 | -33.82290 | 151.14395 | 1971 ft | 140 kts | 164° |
| 2026-04-24 07:07 | -33.83223 | 151.14637 | 1870 ft | 138 kts | 165° |
| 2026-04-24 07:07 | -33.85083 | 151.15120 | 1644 ft | 137 kts | 163° |
| 2026-04-24 07:08 | -33.86028 | 151.15366 | 1457 ft | 138 kts | 164° |
| 2026-04-24 07:08 | -33.86972 | 151.15611 | 1272 ft | 139 kts | 163° |
| 2026-04-24 07:08 | -33.87901 | 151.15853 | 1089 ft | 135 kts | 165° |
| 2026-04-24 07:08 | -33.88832 | 151.16093 | 876 ft | 137 kts | 165° |
| 2026-04-24 07:09 | -33.89738 | 151.16330 | 699 ft | 137 kts | 165° |
| 2026-04-24 07:09 | -33.90643 | 151.16563 | 516 ft | 133 kts | 164° |
| 2026-04-24 07:09 | -33.91548 | 151.16799 | 318 ft | 139 kts | 163° |
| 2026-04-24 07:09 | -33.92474 | 151.17036 | 217 ft | 136 kts | 165° |
| 2026-04-24 07:10 | -33.93380 | 151.17272 | 39 ft | 127 kts | 165° |
| 2026-04-24 07:10 | -33.94112 | 151.17465 | 28 ft | 82 kts | 167° |
| 2026-04-24 07:10 | -33.94480 | 151.17561 | 29 ft | 26 kts | 164° |
| 2026-04-24 07:10 | -33.94533 | 151.17662 | 29 ft | 14 kts | 78° |
| 2026-04-24 07:11 | -33.94508 | 151.17762 | 29 ft | 8 kts | 55° |
| 2026-04-24 07:11 | -33.94466 | 151.17775 | 29 ft | 12 kts | 353° |
| 2026-04-24 07:11 | -33.94384 | 151.17751 | 29 ft | 10 kts | 346° |
| 2026-04-24 07:11 | -33.94349 | 151.17740 | 29 ft | 0 kts | 346° |
| 2026-04-24 07:12 | -33.94345 | 151.17739 | 29 ft | 3 kts | 346° |
| 2026-04-24 07:13 | -33.94292 | 151.17722 | 29 ft | 13 kts | 345° |
| 2026-04-24 07:13 | -33.94193 | 151.17692 | 28 ft | 12 kts | 346° |
| 2026-04-24 07:13 | -33.94170 | 151.17685 | 28 ft | 0 kts | 346° |
| 2026-04-24 07:15 | -33.94156 | 151.17680 | 28 ft | 8 kts | 346° |
| 2026-04-24 07:15 | -33.94043 | 151.17648 | 27 ft | 25 kts | 347° |
| 2026-04-24 07:15 | -33.93857 | 151.17599 | 28 ft | 23 kts | 348° |
| 2026-04-24 07:16 | -33.93718 | 151.17564 | 28 ft | 14 kts | 347° |
| 2026-04-24 07:16 | -33.93647 | 151.17605 | 29 ft | 12 kts | 64° |
| 2026-04-24 07:16 | -33.93647 | 151.17703 | 29 ft | 12 kts | 100° |
| 2026-04-24 07:16 | -33.93653 | 151.17799 | 29 ft | 11 kts | 67° |
| 2026-04-24 07:17 | -33.93598 | 151.17830 | 29 ft | 9 kts | 6° |
| 2026-04-24 07:17 | -33.93542 | 151.17832 | 29 ft | 6 kts | 351° |
| 2026-04-24 07:17 | -33.93529 | 151.17806 | 29 ft | 3 kts | 272° |
| 2026-04-24 07:17 | -33.93526 | 151.17780 | 29 ft | 3 kts | 280° |
| 2026-04-24 07:18 | -33.93525 | 151.17768 | 29 ft | 0 kts | 279° |